Time;durP1;ratioP1;P1;durP2;ratioP2;P2;SDS_P1;SDS_P2;PMS_P1;PMS_P2;Temp;Humidity;BMP_temperature;BMP_pressure;BME280_temperature;BME280_humidity;BME280_pressure;Samples;Min_cycle;Max_cycle;Signal;HPM_P1;HPM_P2
2023/06/03 00:03:36;;;;;;;1.00;0.90;;;;;;;4.90;59.93;100482.21;218158;1258;139328;-77
2023/06/03 00:08:45;;;;;;;1.30;1.30;;;;;;;4.78;60.08;100482.19;219002;1257;140003;-77
2023/06/03 00:13:49;;;;;;;4.20;1.70;;;;;;;4.68;60.41;100490.23;220166;1257;139165;-78
2023/06/03 00:18:55;;;;;;;4.50;1.20;;;;;;;4.61;60.79;100493.06;217369;1257;138986;-77
2023/06/03 00:24:00;;;;;;;4.70;1.70;;;;;;;4.55;61.00;100493.75;220063;1257;139254;-79
2023/06/03 00:29:04;;;;;;;2.70;2.00;;;;;;;4.47;61.11;100494.17;217232;1258;139984;-72
2023/06/03 00:34:09;;;;;;;2.20;1.20;;;;;;;4.28;61.04;100492.45;218564;1257;138879;-71
2023/06/03 00:39:15;;;;;;;6.70;3.30;;;;;;;4.09;61.69;100492.14;219270;1257;140677;-72
2023/06/03 00:44:19;;;;;;;4.00;1.30;;;;;;;3.98;61.99;100496.59;217871;1261;138892;-71
2023/06/03 00:49:24;;;;;;;3.10;1.30;;;;;;;3.92;62.48;100493.58;217622;1257;138628;-71
2023/06/03 00:54:29;;;;;;;2.10;1.40;;;;;;;3.85;62.74;100495.81;218600;1257;139917;-72
2023/06/03 00:59:34;;;;;;;2.80;1.00;;;;;;;3.72;62.51;100492.30;217648;1257;139704;-72
2023/06/03 01:04:45;;;;;;;1.50;1.40;;;;;;;3.55;62.69;100500.73;217959;1257;139299;-70
2023/06/03 01:10:10;;;;;;;2.00;1.80;;;;;;;3.33;62.91;100498.05;217113;1257;138889;-72
2023/06/03 01:15:25;;;;;;;2.10;1.90;;;;;;;3.16;63.59;100497.50;217086;1261;139406;-72
2023/06/03 01:20:29;;;;;;;4.20;2.50;;;;;;;3.06;63.77;100498.48;217593;1257;139229;-75
2023/06/03 01:25:35;;;;;;;7.30;3.30;;;;;;;2.88;63.89;100507.73;218067;1259;139107;-78
2023/06/03 01:30:39;;;;;;;6.80;2.80;;;;;;;2.75;64.15;100510.07;217312;1261;139550;-76
2023/06/03 01:35:47;;;;;;;6.60;2.90;;;;;;;2.57;64.42;100515.33;218009;1259;140681;-73
2023/06/03 01:40:52;;;;;;;3.20;2.30;;;;;;;2.40;64.71;100525.59;218174;1257;140216;-75
2023/06/03 01:45:57;;;;;;;2.90;2.60;;;;;;;2.31;65.14;100527.88;218232;1260;140249;-80
2023/06/03 01:51:02;;;;;;;3.00;1.50;;;;;;;2.31;65.19;100535.52;217299;1261;139191;-74
2023/06/03 01:56:08;;;;;;;1.50;1.20;;;;;;;2.33;66.07;100533.50;218049;1262;139554;-76
2023/06/03 02:01:13;;;;;;;2.30;1.40;;;;;;;2.32;65.76;100536.35;217974;1257;139372;-73
2023/06/03 02:06:20;;;;;;;3.60;2.00;;;;;;;2.27;65.67;100535.72;218831;1257;140014;-70
2023/06/03 02:11:25;;;;;;;2.60;1.80;;;;;;;2.25;66.21;100542.98;219943;1257;140528;-77
2023/06/03 02:16:28;;;;;;;4.20;1.30;;;;;;;2.20;65.88;100540.00;219977;1258;139972;-72
2023/06/03 02:21:34;;;;;;;1.70;1.50;;;;;;;2.11;65.98;100547.40;218197;1261;140021;-71
2023/06/03 02:26:50;;;;;;;2.40;1.90;;;;;;;2.11;66.33;100552.69;219606;1258;140119;-71
2023/06/03 02:31:57;;;;;;;1.80;1.70;;;;;;;2.11;66.30;100551.23;218568;1257;140007;-76
2023/06/03 02:37:02;;;;;;;5.40;2.90;;;;;;;2.03;66.52;100559.11;219555;1257;141338;-76
2023/06/03 02:42:08;;;;;;;2.70;2.20;;;;;;;1.91;66.28;100567.20;217762;1257;139202;-73
2023/06/03 02:47:13;;;;;;;2.70;1.70;;;;;;;1.81;66.47;100572.53;217492;1260;140436;-75
2023/06/03 02:52:19;;;;;;;4.00;1.70;;;;;;;1.80;67.28;100573.48;216987;1259;140399;-70
2023/06/03 02:57:24;;;;;;;3.40;2.20;;;;;;;1.82;67.32;100579.61;218290;1258;140623;-69
2023/06/03 03:02:30;;;;;;;2.30;1.20;;;;;;;1.83;67.44;100585.70;217795;1257;139510;-76
2023/06/03 03:07:36;;;;;;;2.80;2.50;;;;;;;1.87;67.59;100582.23;216927;1259;139200;-71
2023/06/03 03:12:41;;;;;;;3.80;1.90;;;;;;;1.92;68.08;100585.17;218149;1257;141442;-75
2023/06/03 03:17:46;;;;;;;4.40;2.50;;;;;;;1.99;67.93;100593.37;217569;1257;139503;-73
2023/06/03 03:22:52;;;;;;;3.30;1.70;;;;;;;2.08;68.34;100594.27;217155;1257;139653;-77
2023/06/03 03:27:58;;;;;;;2.50;1.90;;;;;;;2.15;68.36;100597.63;217639;1261;139890;-75
2023/06/03 03:33:03;;;;;;;4.60;2.00;;;;;;;2.17;68.47;100603.45;217028;1257;139395;-74
2023/06/03 03:38:09;;;;;;;5.20;1.90;;;;;;;2.27;68.80;100611.45;218470;1257;1202973;-77
2023/06/03 03:43:18;;;;;;;6.50;2.40;;;;;;;2.60;69.33;100614.31;217704;1257;139928;-76
2023/06/03 03:48:27;;;;;;;5.50;2.60;;;;;;;2.94;69.10;100615.46;217348;1259;140500;-73
2023/06/03 03:53:35;;;;;;;10.40;2.60;;;;;;;3.10;68.86;100617.93;218230;1259;231315;-74
2023/06/03 03:58:42;;;;;;;5.90;3.10;;;;;;;3.52;69.12;100614.11;219617;1257;139949;-75
2023/06/03 04:03:51;;;;;;;4.30;2.40;;;;;;;3.85;68.90;100614.74;220120;1257;139365;-77
2023/06/03 04:08:56;;;;;;;4.60;2.90;;;;;;;4.15;68.98;100623.02;220164;1257;139695;-76
2023/06/03 04:14:01;;;;;;;5.40;3.30;;;;;;;4.38;69.00;100624.14;220171;1257;139269;-77
2023/06/03 04:19:11;;;;;;;5.20;2.60;;;;;;;5.46;68.07;100627.48;220122;1257;140211;-76
2023/06/03 04:24:16;;;;;;;4.20;1.80;;;;;;;6.59;67.70;100628.19;217969;1257;140040;-76
2023/06/03 04:29:23;;;;;;;3.10;1.70;;;;;;;7.99;66.36;100630.25;218376;1257;140312;-77
2023/06/03 04:34:29;;;;;;;3.30;2.00;;;;;;;8.55;65.27;100630.17;218099;1258;139133;-75
2023/06/03 04:39:33;;;;;;;3.10;1.60;;;;;;;9.54;63.51;100634.31;217619;1257;140564;-75
2023/06/03 04:44:41;;;;;;;2.10;1.60;;;;;;;10.84;62.28;100631.60;218054;1257;139684;-75
2023/06/03 04:49:47;;;;;;;1.80;1.20;;;;;;;12.04;60.61;100625.23;217583;1257;162159;-76
2023/06/03 04:54:52;;;;;;;3.40;0.90;;;;;;;13.01;59.24;100628.66;218405;1257;140343;-75
2023/06/03 04:59:58;;;;;;;1.30;1.20;;;;;;;13.55;57.44;100635.23;218356;1257;139120;-75
2023/06/03 05:05:04;;;;;;;2.30;0.60;;;;;;;14.06;56.17;100639.66;217292;1257;139540;-76
2023/06/03 05:10:09;;;;;;;3.80;1.10;;;;;;;17.37;52.47;100632.90;217548;1257;138934;-80
2023/06/03 05:15:15;;;;;;;6.20;1.90;;;;;;;21.06;48.36;100637.74;217322;1257;139969;-78
2023/06/03 05:20:21;;;;;;;1.30;1.00;;;;;;;24.28;44.46;100647.63;217275;1257;139255;-78
2023/06/03 05:25:26;;;;;;;2.40;0.80;;;;;;;27.31;40.68;100650.70;217949;1261;141320;-79
2023/06/03 05:30:30;;;;;;;2.60;1.10;;;;;;;29.37;36.94;100651.19;217248;1261;138528;-79
2023/06/03 05:35:35;;;;;;;0.80;0.80;;;;;;;30.88;34.00;100659.54;219408;1257;139586;-81
2023/06/03 05:40:43;;;;;;;1.30;0.70;;;;;;;32.10;31.37;100665.26;217858;1257;138661;-82
2023/06/03 05:45:50;;;;;;;1.60;0.50;;;;;;;32.85;29.20;100661.33;217429;1260;139279;-82
2023/06/03 05:50:55;;;;;;;1.50;0.60;;;;;;;33.53;27.65;100665.77;217878;1257;138777;-81
2023/06/03 05:55:58;;;;;;;;;;;;;;;33.88;26.17;100670.52;217687;1257;138789;-83
2023/06/03 06:01:05;;;;;;;3.70;0.80;;;;;;;34.31;25.38;100666.86;217487;1258;125127;-81
2023/06/03 06:06:09;;;;;;;1.40;0.50;;;;;;;35.01;24.86;100664.69;220174;1257;139384;-83
2023/06/03 06:11:15;;;;;;;0.50;0.50;;;;;;;35.13;23.82;100658.89;220058;1257;140258;-82
2023/06/03 06:16:24;;;;;;;5.60;0.60;;;;;;;35.21;23.16;100661.05;218779;1258;139966;-75
2023/06/03 06:21:30;;;;;;;1.20;0.60;;;;;;;35.17;22.44;100662.89;216982;1257;138999;-81
2023/06/03 06:26:36;;;;;;;0.90;0.70;;;;;;;35.02;22.24;100661.15;218580;1257;139324;-79
2023/06/03 06:31:41;;;;;;;1.90;0.60;;;;;;;35.26;22.24;100656.84;217250;1258;138439;-80
2023/06/03 06:36:52;;;;;;;2.20;0.60;;;;;;;35.55;21.77;100656.98;218860;1258;139472;-79
2023/06/03 06:42:27;;;;;;;0.70;0.60;;;;;;;35.37;21.30;100658.30;217793;1258;140138;-80
2023/06/03 06:47:37;;;;;;;0.50;0.30;;;;;;;34.95;21.11;100652.73;216951;1257;139566;-79
2023/06/03 06:52:42;;;;;;;0.90;0.40;;;;;;;34.85;20.91;100653.79;217027;1258;140557;-73
2023/06/03 06:57:47;;;;;;;0.80;0.50;;;;;;;34.42;20.84;100650.98;217182;1258;139763;-79
2023/06/03 07:02:52;;;;;;;0.40;0.40;;;;;;;34.09;20.82;100654.96;217017;1261;139046;-78
2023/06/03 07:07:58;;;;;;;2.00;0.50;;;;;;;33.75;20.80;100655.52;217159;1257;139290;-77
2023/06/03 07:13:03;;;;;;;1.00;0.60;;;;;;;33.22;20.95;100654.73;216953;1261;139368;-77
2023/06/03 07:18:11;;;;;;;0.50;0.50;;;;;;;32.77;21.01;100655.31;218136;1258;139112;-76
2023/06/03 07:23:27;;;;;;;1.00;0.40;;;;;;;32.29;21.65;100653.97;216867;1258;141278;-79
2023/06/03 07:28:33;;;;;;;0.80;0.50;;;;;;;31.14;21.70;100650.86;217098;1258;138714;-76
2023/06/03 07:33:53;;;;;;;0.50;0.50;;;;;;;29.99;21.95;100653.20;217854;1261;140683;-76
2023/06/03 07:39:09;;;;;;;1.60;0.70;;;;;;;28.86;22.69;100651.02;217240;1257;139001;-76
2023/06/03 07:44:15;;;;;;;0.60;0.60;;;;;;;28.01;23.69;100652.24;219810;1257;140071;-78
2023/06/03 07:49:21;;;;;;;4.80;0.70;;;;;;;27.33;23.93;100657.64;220110;1257;139528;-78
2023/06/03 07:54:29;;;;;;;2.00;0.90;;;;;;;26.52;24.73;100656.71;220175;1257;140147;-77
2023/06/03 07:59:34;;;;;;;1.40;0.60;;;;;;;25.99;25.24;100653.84;219456;1257;139712;-78
2023/06/03 08:04:40;;;;;;;2.90;0.70;;;;;;;25.52;25.52;100656.48;217822;1257;139646;-77
2023/06/03 08:09:46;;;;;;;1.30;0.60;;;;;;;25.06;26.06;100655.37;220177;1257;139037;-79
2023/06/03 08:14:51;;;;;;;1.10;0.70;;;;;;;24.35;26.81;100649.38;219414;1257;140534;-79
2023/06/03 08:19:55;;;;;;;0.90;0.60;;;;;;;23.84;27.53;100650.86;217035;1257;139206;-74
2023/06/03 08:24:59;;;;;;;1.00;0.50;;;;;;;23.49;27.57;100654.73;217735;1261;139428;-76
2023/06/03 08:30:06;;;;;;;0.70;0.70;;;;;;;23.35;28.02;100653.87;217653;1257;139255;-76
2023/06/03 08:35:19;;;;;;;1.10;0.80;;;;;;;23.32;28.12;100652.34;217724;1261;140229;-77
2023/06/03 08:40:33;;;;;;;1.10;0.40;;;;;;;23.25;28.38;100650.61;217386;1257;141108;-77
2023/06/03 08:46:10;;;;;;;2.30;0.90;;;;;;;23.03;27.29;100651.55;217460;1257;138743;-78
2023/06/03 08:51:25;;;;;;;2.10;1.00;;;;;;;22.94;27.41;100645.71;218031;1258;138999;-76
2023/06/03 08:56:34;;;;;;;2.60;0.70;;;;;;;22.59;27.81;100646.55;216958;1259;138913;-78
2023/06/03 09:01:40;;;;;;;0.90;0.60;;;;;;;22.40;28.31;100647.56;218415;1258;139077;-79
2023/06/03 09:06:46;;;;;;;1.50;0.90;;;;;;;22.18;28.32;100644.63;217279;1258;139555;-78
2023/06/03 09:11:51;;;;;;;1.30;1.10;;;;;;;22.16;28.44;100653.23;217073;1261;138777;-78
2023/06/03 09:16:55;;;;;;;3.10;0.90;;;;;;;21.81;28.54;100647.23;216906;1258;139009;-80
2023/06/03 09:22:01;;;;;;;1.90;1.30;;;;;;;21.55;29.18;100645.41;217231;1258;139616;-79
2023/06/03 09:27:06;;;;;;;1.80;0.60;;;;;;;21.52;28.95;100647.89;217859;1257;139143;-76
2023/06/03 09:32:10;;;;;;;1.60;0.50;;;;;;;21.63;28.43;100645.73;217580;1261;139703;-78
2023/06/03 09:37:14;;;;;;;1.10;0.90;;;;;;;21.67;28.84;100644.13;217740;1257;139346;-78
2023/06/03 09:42:18;;;;;;;3.40;0.70;;;;;;;21.69;28.68;100641.13;217510;1261;139470;-79
2023/06/03 09:47:22;;;;;;;1.80;0.80;;;;;;;21.69;28.83;100644.20;218205;1257;140055;-80
2023/06/03 09:52:33;;;;;;;8.90;1.00;;;;;;;21.48;29.01;100635.38;218506;1257;139780;-78
2023/06/03 09:57:37;;;;;;;2.30;0.70;;;;;;;21.59;28.74;100631.61;219655;1258;139675;-79
2023/06/03 10:02:43;;;;;;;0.80;0.40;;;;;;;21.70;28.38;100634.96;218791;1257;140164;-79
2023/06/03 10:07:48;;;;;;;1.30;0.80;;;;;;;21.77;27.80;100631.68;217043;1257;139175;-77
2023/06/03 10:12:53;;;;;;;1.20;1.00;;;;;;;21.53;27.48;100631.94;217594;1258;140025;-78
2023/06/03 10:17:59;;;;;;;3.00;0.60;;;;;;;21.42;27.67;100629.90;218256;1258;139476;-78
2023/06/03 10:23:07;;;;;;;0.30;0.30;;;;;;;21.64;27.31;100629.02;218435;1258;139052;-79
2023/06/03 10:28:14;;;;;;;5.50;0.80;;;;;;;21.76;27.36;100621.16;217632;1259;140388;-80
2023/06/03 10:33:19;;;;;;;1.30;0.70;;;;;;;21.71;27.76;100619.33;217458;1258;139117;-79
2023/06/03 10:38:25;;;;;;;0.60;0.60;;;;;;;21.68;28.01;100615.29;219107;1257;140102;-80
2023/06/03 10:43:31;;;;;;;1.00;0.60;;;;;;;21.67;28.11;100612.87;217109;1261;140037;-81
2023/06/03 10:48:37;;;;;;;0.50;0.50;;;;;;;21.34;27.89;100604.75;218075;1258;139727;-80
2023/06/03 10:54:18;;;;;;;1.30;0.80;;;;;;;20.76;28.01;100599.11;216738;1258;138733;-80
2023/06/03 10:59:27;;;;;;;0.80;0.60;;;;;;;20.39;28.48;100596.87;216924;1258;140494;-80
2023/06/03 11:04:35;;;;;;;0.50;0.50;;;;;;;20.51;28.38;100588.36;217661;1261;138875;-77
2023/06/03 11:09:40;;;;;;;0.80;0.50;;;;;;;20.77;28.59;100586.85;217728;1258;139106;-79
2023/06/03 11:14:50;;;;;;;0.70;0.40;;;;;;;21.04;28.77;100581.55;217161;1259;139623;-79
2023/06/03 11:19:56;;;;;;;0.60;0.60;;;;;;;21.13;28.72;100574.94;217406;1259;139208;-78
2023/06/03 11:25:02;;;;;;;0.50;0.30;;;;;;;21.09;29.07;100579.95;218425;1258;138678;-78
2023/06/03 11:30:07;;;;;;;0.40;0.40;;;;;;;21.15;28.95;100571.43;217599;1259;141182;-78
2023/06/03 11:35:12;;;;;;;1.10;0.70;;;;;;;21.23;29.00;100575.34;217138;1260;139645;-77
2023/06/03 11:40:19;;;;;;;1.10;0.90;;;;;;;21.15;28.67;100570.52;217710;1261;140426;-81
2023/06/03 11:45:25;;;;;;;2.60;0.80;;;;;;;21.06;28.46;100573.14;219290;1261;140621;-72
2023/06/03 11:50:31;;;;;;;;;;;;;;;21.14;28.57;100567.48;217753;1258;139063;-78
2023/06/03 11:55:37;;;;;;;0.80;0.80;;;;;;;21.16;28.55;100570.66;218803;1257;126798;-78
2023/06/03 12:00:43;;;;;;;1.20;1.10;;;;;;;21.04;28.74;100572.35;217406;1258;139208;-80
2023/06/03 12:05:53;;;;;;;4.30;0.60;;;;;;;21.04;28.71;100561.73;218176;1259;140609;-81
2023/06/03 12:10:58;;;;;;;1.20;0.70;;;;;;;21.10;29.00;100561.27;217011;1259;139328;-77
2023/06/03 12:16:03;;;;;;;3.10;0.80;;;;;;;21.01;28.83;100561.75;217292;1259;139065;-80
2023/06/03 12:21:22;;;;;;;4.10;1.10;;;;;;;21.06;29.04;100555.25;218511;1260;138854;-77
2023/06/03 12:26:38;;;;;;;2.20;1.00;;;;;;;21.09;29.00;100551.70;218632;1259;139498;-77
2023/06/03 12:32:03;;;;;;;2.90;0.80;;;;;;;21.03;28.92;100552.19;218064;1258;139249;-74
2023/06/03 12:37:08;;;;;;;1.00;0.70;;;;;;;21.04;28.93;100543.19;218733;1258;139357;-77
2023/06/03 12:42:13;;;;;;;0.80;0.80;;;;;;;20.88;28.41;100537.67;217502;1259;138553;-87
2023/06/03 12:47:18;;;;;;;0.80;0.60;;;;;;;20.82;28.95;100534.36;217005;1258;139430;-79
2023/06/03 12:52:24;;;;;;;4.90;1.10;;;;;;;20.90;28.78;100531.30;217313;1258;139437;-83
2023/06/03 12:57:28;;;;;;;1.60;0.90;;;;;;;20.78;29.03;100533.42;217070;1261;139426;-85
2023/06/03 13:02:36;;;;;;;8.10;1.30;;;;;;;20.79;29.06;100533.47;217311;1261;138482;-70
2023/06/03 13:07:43;;;;;;;0.40;0.40;;;;;;;20.87;29.15;100528.73;217578;1261;139815;-68
2023/06/03 13:12:49;;;;;;;2.10;0.60;;;;;;;20.84;29.07;100523.05;218533;1259;139722;-73
2023/06/03 13:17:53;;;;;;;2.60;1.00;;;;;;;20.93;29.39;100519.84;217370;1259;139903;-70
2023/06/03 13:22:58;;;;;;;2.80;0.90;;;;;;;20.93;29.21;100514.70;218319;1261;138953;-78
2023/06/03 13:28:04;;;;;;;2.60;0.70;;;;;;;20.89;28.75;100511.97;217127;1258;138921;-76
2023/06/03 13:33:15;;;;;;;0.60;0.60;;;;;;;20.81;28.71;100512.79;218772;1258;140190;-86
2023/06/03 13:38:23;;;;;;;1.60;1.10;;;;;;;20.72;28.78;100503.72;218765;1259;139487;-80
2023/06/03 13:43:28;;;;;;;1.60;0.60;;;;;;;20.71;28.91;100498.26;218332;1261;139584;-86
2023/06/03 13:48:33;;;;;;;2.10;1.10;;;;;;;20.68;28.76;100497.95;217460;1257;152112;-77
2023/06/03 13:53:36;;;;;;;2.60;1.00;;;;;;;20.64;28.85;100491.05;218650;1261;142106;-78
2023/06/03 13:58:40;;;;;;;8.40;0.80;;;;;;;20.70;29.03;100486.62;217505;1261;139227;-84
2023/06/03 14:03:46;;;;;;;0.70;0.70;;;;;;;20.62;28.82;100488.08;217366;1261;139721;-73
2023/06/03 14:08:49;;;;;;;7.10;0.80;;;;;;;20.55;28.60;100483.63;217569;1259;139078;-74
2023/06/03 14:13:53;;;;;;;0.80;0.70;;;;;;;20.52;29.17;100477.70;217671;1258;139295;-76
2023/06/03 14:18:57;;;;;;;2.40;0.80;;;;;;;20.39;29.13;100477.52;218658;1258;139807;-73
2023/06/03 14:24:01;;;;;;;0.50;0.50;;;;;;;20.39;29.26;100479.05;218194;1259;139514;-82
2023/06/03 14:29:06;;;;;;;1.60;0.70;;;;;;;20.31;28.85;100476.09;217743;1259;141251;-73
2023/06/03 14:34:10;;;;;;;5.40;1.10;;;;;;;20.20;28.84;100476.70;217968;1259;139846;-75
2023/06/03 14:39:16;;;;;;;0.60;0.40;;;;;;;20.06;28.85;100473.54;217007;1261;140044;-77
2023/06/03 14:44:21;;;;;;;1.30;0.70;;;;;;;20.03;28.90;100476.20;217239;1259;139946;-76
2023/06/03 14:49:25;;;;;;;3.20;0.80;;;;;;;20.05;29.17;100473.27;217110;1258;139733;-78
2023/06/03 14:54:28;;;;;;;2.60;0.50;;;;;;;20.06;28.95;100468.98;217519;1261;138951;-78
2023/06/03 14:59:33;;;;;;;0.70;0.70;;;;;;;20.05;28.67;100465.86;217978;1261;138980;-73
2023/06/03 15:04:38;;;;;;;7.20;0.80;;;;;;;20.07;29.06;100460.65;217025;1259;139470;-81
2023/06/03 15:09:42;;;;;;;1.60;0.60;;;;;;;19.94;29.25;100450.98;218822;1258;138958;-76
2023/06/03 15:14:47;;;;;;;2.30;0.90;;;;;;;19.94;29.87;100447.95;217386;1259;140118;-75
2023/06/03 15:19:51;;;;;;;1.60;0.70;;;;;;;19.91;29.49;100442.82;217745;1261;139467;-75
2023/06/03 15:24:54;;;;;;;8.30;0.70;;;;;;;19.73;29.53;100440.70;217778;1257;139151;-73
2023/06/03 15:29:59;;;;;;;0.60;0.60;;;;;;;19.73;29.75;100437.62;218138;1258;139516;-73
2023/06/03 15:35:05;;;;;;;1.80;0.50;;;;;;;19.69;29.71;100436.61;218676;1261;139574;-73
2023/06/03 15:40:11;;;;;;;0.70;0.70;;;;;;;19.65;29.85;100430.02;217371;1258;256749;-78
2023/06/03 15:45:15;;;;;;;0.70;0.40;;;;;;;19.65;29.79;100425.48;218774;1260;139880;-79
2023/06/03 15:50:18;;;;;;;0.50;0.50;;;;;;;19.54;29.66;100426.81;217116;1259;139042;-76
2023/06/03 15:55:22;;;;;;;3.60;0.80;;;;;;;19.29;30.13;100420.78;218815;1259;138836;-76
2023/06/03 16:00:26;;;;;;;37.70;5.60;;;;;;;19.25;30.13;100410.15;217887;1258;137982;-74
2023/06/03 16:05:31;;;;;;;0.70;0.60;;;;;;;19.19;30.29;100408.23;218695;1261;141838;-77
2023/06/03 16:10:38;;;;;;;10.00;0.80;;;;;;;19.17;30.43;100405.48;217806;1259;138755;-79
2023/06/03 16:15:42;;;;;;;5.00;0.80;;;;;;;19.13;30.50;100399.22;217082;1263;139743;-76
2023/06/03 16:20:46;;;;;;;1.90;0.80;;;;;;;19.08;30.66;100395.29;216859;1261;139759;-73
2023/06/03 16:25:50;;;;;;;2.00;0.70;;;;;;;18.98;30.87;100390.45;218037;1259;139832;-74
2023/06/03 16:30:54;;;;;;;4.10;0.60;;;;;;;18.91;30.97;100390.48;217083;1261;141286;-81
2023/06/03 16:35:59;;;;;;;1.40;0.60;;;;;;;18.82;30.72;100388.86;218202;1261;139687;-79
2023/06/03 16:41:02;;;;;;;1.70;0.90;;;;;;;18.76;30.86;100382.92;217401;1259;140224;-80
2023/06/03 16:46:07;;;;;;;1.40;0.60;;;;;;;18.70;30.83;100382.35;218621;1259;140022;-74
2023/06/03 16:51:12;;;;;;;0.70;0.70;;;;;;;18.58;30.87;100384.19;217082;1261;140156;-74
2023/06/03 16:56:16;;;;;;;3.50;0.90;;;;;;;18.48;31.07;100389.63;217299;1258;139674;-72
2023/06/03 17:01:21;;;;;;;1.60;0.90;;;;;;;18.36;31.15;100382.66;218538;1261;139221;-78
2023/06/03 17:06:25;;;;;;;0.60;0.40;;;;;;;18.25;31.22;100379.45;217296;1259;139275;-81
2023/06/03 17:11:30;;;;;;;0.80;0.80;;;;;;;18.14;31.43;100378.98;217351;1261;139085;-81
2023/06/03 17:16:34;;;;;;;0.70;0.60;;;;;;;18.07;31.54;100373.74;218031;1259;139893;-75
2023/06/03 17:21:39;;;;;;;1.80;0.40;;;;;;;17.99;31.87;100372.67;217689;1261;139884;-72
2023/06/03 17:26:43;;;;;;;0.40;0.40;;;;;;;17.90;32.15;100373.14;218621;1261;161688;-79
2023/06/03 17:31:49;;;;;;;2.80;0.60;;;;;;;17.80;32.18;100365.62;219082;1261;140083;-82
2023/06/03 17:36:56;;;;;;;1.90;0.60;;;;;;;17.69;32.36;100369.85;219223;1261;139727;-79
2023/06/03 17:42:02;;;;;;;2.70;0.40;;;;;;;17.55;32.32;100370.48;220401;1257;139795;-75
2023/06/03 17:47:08;;;;;;;1.60;0.70;;;;;;;17.44;32.45;100368.09;220015;1260;139110;-77
2023/06/03 17:52:14;;;;;;;0.90;0.80;;;;;;;17.34;32.61;100368.80;220020;1257;140600;-77
2023/06/03 17:57:18;;;;;;;0.80;0.80;;;;;;;17.19;32.81;100365.23;219985;1259;138918;-76
2023/06/03 18:02:27;;;;;;;2.80;1.30;;;;;;;17.06;33.53;100358.14;220091;1261;139624;-81
2023/06/03 18:11:53;;;;;;;0.70;0.70;;;;;;;16.75;35.86;100359.24;214112;1298;656455;-77
2023/06/03 18:16:59;;;;;;;10.20;2.40;;;;;;;16.44;36.79;100358.68;217128;1269;138527;-75
2023/06/03 18:22:06;;;;;;;1.30;1.20;;;;;;;16.15;37.81;100362.28;216346;1260;908365;-78
2023/06/03 18:27:13;;;;;;;7.80;1.30;;;;;;;15.86;38.39;100366.36;219005;1260;140483;-77
2023/06/03 18:32:18;;;;;;;1.20;1.00;;;;;;;15.57;38.96;100368.42;218324;1259;138873;-75
2023/06/03 18:37:24;;;;;;;0.90;0.80;;;;;;;15.30;39.49;100375.34;217550;1260;137810;-72
2023/06/03 18:42:29;;;;;;;1.80;1.30;;;;;;;15.03;39.65;100378.11;217662;1260;139236;-71
2023/06/03 18:47:34;;;;;;;1.70;1.50;;;;;;;14.79;40.29;100383.88;217164;1260;149378;-76
2023/06/03 18:52:42;;;;;;;2.70;2.00;;;;;;;14.55;40.39;100389.70;217663;1261;140484;-76
2023/06/03 18:57:52;;;;;;;3.40;1.90;;;;;;;14.31;41.11;100393.05;218498;1262;138390;-79
2023/06/03 19:03:02;;;;;;;3.20;2.00;;;;;;;14.07;41.52;100392.80;217177;1260;139642;-73
2023/06/03 19:08:29;;;;;;;9.10;3.00;;;;;;;13.79;42.12;100393.80;218212;1260;138481;-70
2023/06/03 19:13:37;;;;;;;3.30;2.30;;;;;;;13.51;42.85;100401.99;217161;1260;139746;-68
2023/06/03 19:18:45;;;;;;;4.50;2.70;;;;;;;13.23;43.46;100413.61;218458;1260;138859;-82
2023/06/03 19:23:49;;;;;;;3.40;2.20;;;;;;;12.93;43.82;100421.39;219048;1259;138891;-72
2023/06/03 19:28:59;;;;;;;1.80;1.70;;;;;;;12.53;44.75;100428.67;218964;1259;138673;-75
2023/06/03 19:34:06;;;;;;;2.60;1.40;;;;;;;12.20;45.67;100431.93;219984;1260;138203;-79
2023/06/03 19:39:12;;;;;;;2.30;2.00;;;;;;;12.02;46.21;100435.73;217949;1259;138902;-72
2023/06/03 19:44:19;;;;;;;2.90;2.00;;;;;;;11.80;46.94;100444.69;217673;1259;138293;-78
2023/06/03 19:49:25;;;;;;;3.30;3.00;;;;;;;11.61;47.26;100447.13;218319;1259;139580;-79
2023/06/03 19:54:29;;;;;;;1.70;1.30;;;;;;;11.29;47.48;100449.79;218188;1260;139119;-75
2023/06/03 19:59:36;;;;;;;5.50;1.40;;;;;;;10.89;48.59;100451.17;217564;1260;139443;-77
2023/06/03 20:04:44;;;;;;;3.30;1.30;;;;;;;10.62;49.44;100459.13;217580;1260;139896;-69
2023/06/03 20:10:02;;;;;;;2.90;1.20;;;;;;;10.48;49.98;100463.11;217984;1260;140584;-73
2023/06/03 20:15:08;;;;;;;5.10;1.30;;;;;;;10.34;50.52;100470.52;217594;1260;138658;-75
2023/06/03 20:20:18;;;;;;;1.20;1.10;;;;;;;10.18;50.71;100474.02;217772;1260;139032;-77
2023/06/03 20:25:25;;;;;;;3.50;1.20;;;;;;;9.91;51.03;100468.85;218160;1259;140247;-74
2023/06/03 20:30:30;;;;;;;5.00;2.10;;;;;;;9.67;51.51;100475.27;217764;1259;138651;-73
2023/06/03 20:35:35;;;;;;;8.00;1.70;;;;;;;9.46;52.28;100478.13;217601;1262;138670;-76
2023/06/03 20:40:41;;;;;;;5.20;3.90;;;;;;;9.33;52.77;100484.95;217743;1262;138252;-78
2023/06/03 20:45:46;;;;;;;15.70;6.00;;;;;;;9.20;53.31;100483.58;218563;1259;139353;-79
2023/06/03 20:50:52;;;;;;;10.10;4.80;;;;;;;9.02;53.76;100491.13;217420;1259;138658;-76
2023/06/03 20:55:59;;;;;;;6.80;3.80;;;;;;;8.75;54.23;100490.49;218103;1260;139607;-78
2023/06/03 21:01:03;;;;;;;13.10;3.30;;;;;;;8.53;54.93;100492.96;217834;1259;138828;-70
2023/06/03 21:06:12;;;;;;;4.70;2.70;;;;;;;8.35;55.33;100493.34;218648;1260;139538;-85
2023/06/03 21:11:20;;;;;;;8.60;3.10;;;;;;;8.17;55.75;100492.10;217786;1259;138183;-70
2023/06/03 21:16:24;;;;;;;6.40;3.20;;;;;;;8.11;56.30;100496.66;218042;1260;137891;-80
2023/06/03 21:21:33;;;;;;;8.10;4.60;;;;;;;8.01;56.56;100496.53;217232;1262;139538;-78
2023/06/03 21:26:38;;;;;;;17.10;6.40;;;;;;;7.91;57.09;100497.70;218134;1260;138592;-80
2023/06/03 21:31:44;;;;;;;10.10;4.60;;;;;;;7.77;57.34;100492.45;218741;1260;139807;-72
2023/06/03 21:36:48;;;;;;;13.80;6.20;;;;;;;7.63;57.79;100497.86;217831;1260;139169;-77
2023/06/03 21:41:53;;;;;;;21.70;7.70;;;;;;;7.56;58.21;100494.73;217822;1260;138590;-71
2023/06/03 21:46:57;;;;;;;14.20;6.90;;;;;;;7.45;58.65;100492.41;218325;1259;139167;-70
2023/06/03 21:52:05;;;;;;;14.90;7.70;;;;;;;7.35;58.71;100488.94;218347;1260;138942;-75
2023/06/03 21:57:13;;;;;;;13.70;5.60;;;;;;;7.28;59.17;100489.72;218768;1259;139096;-73
2023/06/03 22:02:18;;;;;;;11.60;4.70;;;;;;;7.21;59.39;100487.83;218020;1259;140011;-73
2023/06/03 22:07:24;;;;;;;23.50;9.30;;;;;;;7.14;59.47;100489.94;217868;1259;138662;-76
2023/06/03 22:12:32;;;;;;;10.20;6.90;;;;;;;7.05;59.90;100484.63;217771;1260;138732;-76
2023/06/03 22:17:38;;;;;;;11.60;5.30;;;;;;;7.00;60.05;100481.58;217900;1260;139662;-79
2023/06/03 22:22:43;;;;;;;15.10;5.00;;;;;;;6.91;60.53;100476.41;217511;1259;138782;-72
2023/06/03 22:28:06;;;;;;;8.50;5.20;;;;;;;6.79;60.85;100478.59;218389;1259;137999;-73
2023/06/03 22:33:13;;;;;;;11.90;6.60;;;;;;;6.71;60.71;100475.72;217479;1259;138096;-72
2023/06/03 22:38:20;;;;;;;4.90;4.40;;;;;;;6.64;61.34;100476.40;218002;1260;139085;-77
2023/06/03 22:43:27;;;;;;;6.90;4.60;;;;;;;6.58;61.71;100469.98;217702;1259;138718;-76
2023/06/03 22:48:33;;;;;;;;;;;;;;;6.50;61.55;100473.20;217748;1260;139115;-73
2023/06/03 22:53:38;;;;;;;9.00;5.30;;;;;;;6.35;62.21;100469.75;217853;1262;124829;-76
2023/06/03 22:58:43;;;;;;;18.80;8.40;;;;;;;6.24;62.56;100471.14;217790;1259;138298;-84
2023/06/03 23:03:48;;;;;;;13.30;7.70;;;;;;;6.17;62.71;100468.00;217526;1260;138338;-73
2023/06/03 23:08:55;;;;;;;18.30;7.70;;;;;;;6.10;63.13;100471.98;218077;1259;139399;-78
2023/06/03 23:14:00;;;;;;;11.80;6.30;;;;;;;6.04;63.21;100467.11;218056;1257;138964;-79
2023/06/03 23:19:07;;;;;;;11.10;6.30;;;;;;;5.92;63.42;100470.17;218519;1259;139396;-72
2023/06/03 23:24:11;;;;;;;12.60;6.50;;;;;;;5.82;63.90;100465.59;217880;1260;139454;-75